GLO1336 SBSP-SBDN
Flight info
| Callsign | GLO1336 |
|---|---|
| Flight time | 0h 57m |
| Altitude | 32000 |
| Route | UGTIX2A EGEVA UM415 PRR DCT |
| Aircraft | B738/M-SDFGIKLORWXY/LB1 |
Departure
| Time | 2026-04-20 01:50 |
|---|---|
| Airport | Congonhas–Deputado Freitas Nobre Airport (SBSP) |
Arrival
| Time | 2026-04-20 02:47 |
|---|---|
| Airport | Presidente Prudente Airport (SBDN) |
| Time | Latitude | Longitude | Altitude | Speed | Heading |
|---|---|---|---|---|---|
| 2026-04-20 01:37 | -23.62509 | -46.65963 | 2599 ft | 0 kts | 237° |
| 2026-04-20 01:43 | -23.62508 | -46.65961 | 2599 ft | 3 kts | 237° |
| 2026-04-20 01:43 | -23.62498 | -46.65936 | 2600 ft | 4 kts | 276° |
| 2026-04-20 01:43 | -23.62509 | -46.65913 | 2600 ft | 4 kts | 322° |
| 2026-04-20 01:43 | -23.62516 | -46.65907 | 2600 ft | 1 kts | 327° |
| 2026-04-20 01:44 | -23.62518 | -46.65905 | 2600 ft | 0 kts | 327° |
| 2026-04-20 01:46 | -23.62505 | -46.65910 | 2600 ft | 4 kts | 346° |
| 2026-04-20 01:46 | -23.62477 | -46.65918 | 2600 ft | 4 kts | 345° |
| 2026-04-20 01:47 | -23.62449 | -46.65926 | 2600 ft | 4 kts | 345° |
| 2026-04-20 01:47 | -23.62421 | -46.65934 | 2600 ft | 4 kts | 344° |
| 2026-04-20 01:47 | -23.62395 | -46.65942 | 2600 ft | 4 kts | 344° |
| 2026-04-20 01:47 | -23.62371 | -46.65957 | 2599 ft | 4 kts | 327° |
| 2026-04-20 01:48 | -23.62341 | -46.65979 | 2599 ft | 7 kts | 327° |
| 2026-04-20 01:48 | -23.62284 | -46.66019 | 2599 ft | 12 kts | 326° |
| 2026-04-20 01:48 | -23.62206 | -46.66063 | 2587 ft | 13 kts | 329° |
| 2026-04-20 01:48 | -23.62133 | -46.66113 | 2592 ft | 12 kts | 326° |
| 2026-04-20 01:49 | -23.62052 | -46.66128 | 2594 ft | 13 kts | 25° |
| 2026-04-20 01:49 | -23.62070 | -46.66060 | 2593 ft | 12 kts | 148° |
| 2026-04-20 01:49 | -23.62143 | -46.66011 | 2597 ft | 35 kts | 148° |
| 2026-04-20 01:49 | -23.62590 | -46.65700 | 2605 ft | 115 kts | 148° |
| 2026-04-20 01:50 | -23.63467 | -46.65094 | 2691 ft | 175 kts | 148° |
| 2026-04-20 01:50 | -23.64505 | -46.64376 | 3680 ft | 177 kts | 147° |
| 2026-04-20 01:50 | -23.65633 | -46.63774 | 4468 ft | 191 kts | 171° |
| 2026-04-20 01:50 | -23.67006 | -46.63917 | 4736 ft | 215 kts | 189° |
| 2026-04-20 01:51 | -23.68566 | -46.64181 | 5066 ft | 234 kts | 187° |
| 2026-04-20 01:51 | -23.70211 | -46.64391 | 5641 ft | 243 kts | 186° |
| 2026-04-20 01:51 | -23.71922 | -46.64580 | 6389 ft | 249 kts | 186° |
| 2026-04-20 01:51 | -23.73662 | -46.64758 | 7082 ft | 252 kts | 187° |
| 2026-04-20 01:52 | -23.75298 | -46.65352 | 7650 ft | 253 kts | 212° |
| 2026-04-20 01:52 | -23.76535 | -46.66714 | 8400 ft | 262 kts | 235° |
| 2026-04-20 01:52 | -23.77216 | -46.68581 | 9220 ft | 272 kts | 260° |
| 2026-04-20 01:52 | -23.77240 | -46.70667 | 10059 ft | 276 kts | 260° |
| 2026-04-20 01:53 | -23.77945 | -46.72575 | 10769 ft | 272 kts | 232° |
| 2026-04-20 01:53 | -23.79057 | -46.74259 | 11555 ft | 275 kts | 232° |
| 2026-04-20 01:53 | -23.80191 | -46.75956 | 12297 ft | 279 kts | 231° |
| 2026-04-20 01:53 | -23.81330 | -46.77689 | 13057 ft | 282 kts | 232° |
| 2026-04-20 01:54 | -23.82457 | -46.79466 | 13807 ft | 286 kts | 233° |
| 2026-04-20 01:54 | -23.82779 | -46.79982 | 14023 ft | 287 kts | 233° |
| 2026-04-20 01:54 | -23.83837 | -46.81698 | 14659 ft | 290 kts | 233° |
| 2026-04-20 01:54 | -23.84961 | -46.83538 | 15345 ft | 293 kts | 233° |
| 2026-04-20 01:55 | -23.86090 | -46.85419 | 15903 ft | 303 kts | 238° |
| 2026-04-20 01:55 | -23.86758 | -46.87702 | 16014 ft | 333 kts | 264° |
| 2026-04-20 01:55 | -23.86378 | -46.90284 | 16260 ft | 358 kts | 290° |
| 2026-04-20 01:55 | -23.85174 | -46.92712 | 16838 ft | 366 kts | 298° |
| 2026-04-20 01:56 | -23.83837 | -46.95107 | 17491 ft | 370 kts | 298° |
| 2026-04-20 01:56 | -23.82480 | -46.97508 | 18151 ft | 373 kts | 298° |
| 2026-04-20 01:56 | -23.81124 | -46.99935 | 18748 ft | 376 kts | 298° |
| 2026-04-20 01:56 | -23.79770 | -47.02393 | 19336 ft | 378 kts | 298° |
| 2026-04-20 01:57 | -23.78433 | -47.04846 | 19915 ft | 380 kts | 297° |
| 2026-04-20 01:57 | -23.77079 | -47.07339 | 20494 ft | 383 kts | 297° |
| 2026-04-20 01:57 | -23.75714 | -47.09840 | 21074 ft | 386 kts | 299° |
| 2026-04-20 01:57 | -23.73909 | -47.12056 | 21589 ft | 397 kts | 321° |
| 2026-04-20 01:58 | -23.71435 | -47.13462 | 22169 ft | 405 kts | 341° |
| 2026-04-20 01:58 | -23.68670 | -47.14130 | 22750 ft | 409 kts | 347° |
| 2026-04-20 01:58 | -23.65891 | -47.14673 | 23237 ft | 413 kts | 347° |
| 2026-04-20 01:58 | -23.63053 | -47.15242 | 23702 ft | 417 kts | 347° |
| 2026-04-20 01:59 | -23.60190 | -47.15851 | 24139 ft | 420 kts | 346° |
| 2026-04-20 01:59 | -23.57315 | -47.16482 | 24610 ft | 421 kts | 346° |
| 2026-04-20 01:59 | -23.54439 | -47.17115 | 25085 ft | 423 kts | 346° |
| 2026-04-20 01:59 | -23.51546 | -47.17752 | 25530 ft | 425 kts | 346° |
| 2026-04-20 02:00 | -23.48639 | -47.18391 | 25973 ft | 427 kts | 346° |
| 2026-04-20 02:00 | -23.45718 | -47.19031 | 26387 ft | 430 kts | 346° |
| 2026-04-20 02:00 | -23.42775 | -47.19676 | 26809 ft | 432 kts | 346° |
| 2026-04-20 02:00 | -23.39814 | -47.20324 | 27223 ft | 434 kts | 346° |
| 2026-04-20 02:01 | -23.36845 | -47.20974 | 27646 ft | 437 kts | 346° |
| 2026-04-20 02:01 | -23.33857 | -47.21631 | 28063 ft | 438 kts | 344° |
| 2026-04-20 02:01 | -23.31019 | -47.22779 | 28392 ft | 434 kts | 325° |
| 2026-04-20 02:01 | -23.28749 | -47.24822 | 28826 ft | 426 kts | 308° |
| 2026-04-20 02:02 | -23.27043 | -47.27425 | 29314 ft | 419 kts | 293° |
| 2026-04-20 02:02 | -23.26027 | -47.30364 | 29687 ft | 416 kts | 283° |
| 2026-04-20 02:02 | -23.25241 | -47.33414 | 30041 ft | 418 kts | 282° |
| 2026-04-20 02:02 | -23.24486 | -47.36471 | 30419 ft | 418 kts | 282° |
| 2026-04-20 02:03 | -23.23728 | -47.39520 | 30852 ft | 417 kts | 282° |
| 2026-04-20 02:03 | -23.22957 | -47.42558 | 31270 ft | 416 kts | 282° |
| 2026-04-20 02:03 | -23.22176 | -47.45580 | 31639 ft | 416 kts | 282° |
| 2026-04-20 02:03 | -23.21385 | -47.48604 | 32004 ft | 415 kts | 282° |
| 2026-04-20 02:04 | -23.19794 | -47.54650 | 32039 ft | 413 kts | 282° |
| 2026-04-20 02:04 | -23.18236 | -47.60554 | 32035 ft | 407 kts | 282° |
| 2026-04-20 02:05 | -23.17332 | -47.66558 | 32063 ft | 400 kts | 269° |
| 2026-04-20 02:05 | -23.17199 | -47.72613 | 32049 ft | 400 kts | 268° |
| 2026-04-20 02:06 | -23.17042 | -47.78642 | 32049 ft | 402 kts | 268° |
| 2026-04-20 02:06 | -23.16829 | -47.84716 | 32046 ft | 403 kts | 269° |
| 2026-04-20 02:07 | -23.16595 | -47.90815 | 32048 ft | 403 kts | 269° |
| 2026-04-20 02:07 | -23.16360 | -47.96907 | 32042 ft | 404 kts | 269° |
| 2026-04-20 02:08 | -23.16124 | -48.02973 | 32041 ft | 404 kts | 269° |
| 2026-04-20 02:08 | -23.15888 | -48.09074 | 32041 ft | 404 kts | 269° |
| 2026-04-20 02:09 | -23.15652 | -48.15175 | 32040 ft | 404 kts | 269° |
| 2026-04-20 02:09 | -23.15412 | -48.21273 | 32046 ft | 403 kts | 269° |
| 2026-04-20 02:10 | -23.15171 | -48.27346 | 32049 ft | 402 kts | 269° |
| 2026-04-20 02:10 | -23.14928 | -48.33406 | 32055 ft | 400 kts | 269° |
| 2026-04-20 02:11 | -23.14685 | -48.39411 | 32047 ft | 400 kts | 269° |
| 2026-04-20 02:11 | -23.14439 | -48.45455 | 32048 ft | 399 kts | 268° |
| 2026-04-20 02:12 | -23.14193 | -48.51459 | 32046 ft | 398 kts | 268° |
| 2026-04-20 02:12 | -23.13682 | -48.57455 | 32024 ft | 404 kts | 283° |
| 2026-04-20 02:13 | -23.11815 | -48.63239 | 32051 ft | 406 kts | 284° |
| 2026-04-20 02:13 | -23.09925 | -48.68997 | 32045 ft | 407 kts | 284° |
| 2026-04-20 02:14 | -23.08052 | -48.74806 | 32045 ft | 407 kts | 284° |
| 2026-04-20 02:14 | -23.06195 | -48.80620 | 32043 ft | 407 kts | 283° |
| 2026-04-20 02:15 | -23.04341 | -48.86432 | 32030 ft | 407 kts | 284° |
| 2026-04-20 02:15 | -23.02484 | -48.92241 | 32032 ft | 406 kts | 284° |
| 2026-04-20 02:16 | -23.00629 | -48.98037 | 32028 ft | 406 kts | 284° |
| 2026-04-20 02:16 | -22.98772 | -49.03830 | 32030 ft | 406 kts | 284° |
| 2026-04-20 02:17 | -22.96929 | -49.09574 | 32017 ft | 405 kts | 284° |
| 2026-04-20 02:17 | -22.95072 | -49.15351 | 32013 ft | 405 kts | 283° |
| 2026-04-20 02:18 | -22.93064 | -49.21069 | 32014 ft | 406 kts | 286° |
| 2026-04-20 02:18 | -22.90935 | -49.26736 | 32021 ft | 405 kts | 286° |
| 2026-04-20 02:19 | -22.88928 | -49.32435 | 32011 ft | 403 kts | 283° |
| 2026-04-20 02:19 | -22.87214 | -49.38206 | 32013 ft | 402 kts | 282° |
| 2026-04-20 02:20 | -22.85498 | -49.43954 | 32010 ft | 403 kts | 283° |
| 2026-04-20 02:20 | -22.83702 | -49.49710 | 32006 ft | 404 kts | 284° |
| 2026-04-20 02:21 | -22.80794 | -49.58294 | 32005 ft | 404 kts | 284° |
| 2026-04-20 02:22 | -22.78856 | -49.64024 | 32003 ft | 404 kts | 284° |
| 2026-04-20 02:22 | -22.76942 | -49.69710 | 31999 ft | 404 kts | 284° |
| 2026-04-20 02:23 | -22.75020 | -49.75425 | 31986 ft | 403 kts | 284° |
| 2026-04-20 02:23 | -22.73095 | -49.81138 | 32000 ft | 403 kts | 284° |
| 2026-04-20 02:24 | -22.71166 | -49.86841 | 31994 ft | 403 kts | 285° |
| 2026-04-20 02:24 | -22.69243 | -49.92505 | 31954 ft | 403 kts | 285° |
| 2026-04-20 02:24 | -22.68271 | -49.95368 | 31531 ft | 404 kts | 285° |
| 2026-04-20 02:25 | -22.67300 | -49.98223 | 30993 ft | 403 kts | 285° |
| 2026-04-20 02:25 | -22.66331 | -50.01070 | 30481 ft | 403 kts | 285° |
| 2026-04-20 02:25 | -22.65365 | -50.03914 | 29902 ft | 403 kts | 285° |
| 2026-04-20 02:25 | -22.64394 | -50.06769 | 29219 ft | 404 kts | 285° |
| 2026-04-20 02:26 | -22.63420 | -50.09627 | 28572 ft | 404 kts | 285° |
| 2026-04-20 02:26 | -22.62460 | -50.12479 | 27948 ft | 403 kts | 285° |
| 2026-04-20 02:26 | -22.61506 | -50.15329 | 27449 ft | 400 kts | 285° |
| 2026-04-20 02:26 | -22.60563 | -50.18149 | 26972 ft | 397 kts | 285° |
| 2026-04-20 02:27 | -22.59623 | -50.20954 | 26506 ft | 394 kts | 286° |
| 2026-04-20 02:27 | -22.58691 | -50.23730 | 26044 ft | 391 kts | 286° |
| 2026-04-20 02:27 | -22.57760 | -50.26457 | 25597 ft | 389 kts | 287° |
| 2026-04-20 02:27 | -22.56773 | -50.29181 | 25149 ft | 388 kts | 288° |
| 2026-04-20 02:28 | -22.55767 | -50.31884 | 24695 ft | 386 kts | 288° |
| 2026-04-20 02:28 | -22.54760 | -50.34573 | 24235 ft | 385 kts | 289° |
| 2026-04-20 02:28 | -22.53753 | -50.37267 | 23769 ft | 384 kts | 289° |
| 2026-04-20 02:28 | -22.52755 | -50.39945 | 23274 ft | 384 kts | 289° |
| 2026-04-20 02:29 | -22.51774 | -50.42582 | 22785 ft | 382 kts | 289° |
| 2026-04-20 02:29 | -22.50787 | -50.45241 | 22326 ft | 380 kts | 289° |
| 2026-04-20 02:29 | -22.49806 | -50.47886 | 21875 ft | 377 kts | 289° |
| 2026-04-20 02:29 | -22.48833 | -50.50513 | 21438 ft | 375 kts | 289° |
| 2026-04-20 02:30 | -22.47861 | -50.53133 | 20994 ft | 374 kts | 289° |
| 2026-04-20 02:30 | -22.46896 | -50.55737 | 20566 ft | 372 kts | 289° |
| 2026-04-20 02:30 | -22.45934 | -50.58330 | 20134 ft | 371 kts | 289° |
| 2026-04-20 02:30 | -22.45298 | -50.60045 | 19850 ft | 370 kts | 289° |
| 2026-04-20 02:31 | -22.44027 | -50.63468 | 19248 ft | 370 kts | 289° |
| 2026-04-20 02:31 | -22.43070 | -50.66045 | 18822 ft | 369 kts | 289° |
| 2026-04-20 02:31 | -22.42112 | -50.68622 | 18382 ft | 369 kts | 289° |
| 2026-04-20 02:31 | -22.41156 | -50.71194 | 17909 ft | 369 kts | 290° |
| 2026-04-20 02:32 | -22.40197 | -50.73768 | 17455 ft | 367 kts | 290° |
| 2026-04-20 02:32 | -22.39246 | -50.76321 | 17018 ft | 365 kts | 290° |
| 2026-04-20 02:32 | -22.38619 | -50.78005 | 16738 ft | 364 kts | 290° |
| 2026-04-20 02:32 | -22.37672 | -50.80544 | 16300 ft | 362 kts | 290° |
| 2026-04-20 02:33 | -22.36427 | -50.83882 | 15762 ft | 360 kts | 290° |
| 2026-04-20 02:33 | -22.35795 | -50.85575 | 15486 ft | 359 kts | 290° |
| 2026-04-20 02:33 | -22.34863 | -50.88072 | 15057 ft | 357 kts | 290° |
| 2026-04-20 02:33 | -22.33948 | -50.90520 | 14650 ft | 356 kts | 290° |
| 2026-04-20 02:34 | -22.33024 | -50.92993 | 14230 ft | 354 kts | 290° |
| 2026-04-20 02:34 | -22.32102 | -50.95458 | 13814 ft | 354 kts | 290° |
| 2026-04-20 02:34 | -22.31181 | -50.97919 | 13342 ft | 352 kts | 291° |
| 2026-04-20 02:34 | -22.30266 | -51.00364 | 12914 ft | 350 kts | 291° |
| 2026-04-20 02:35 | -22.29357 | -51.02791 | 12496 ft | 347 kts | 291° |
| 2026-04-20 02:35 | -22.28452 | -51.05206 | 12083 ft | 345 kts | 291° |
| 2026-04-20 02:35 | -22.27556 | -51.07595 | 11677 ft | 342 kts | 291° |
| 2026-04-20 02:35 | -22.26663 | -51.09973 | 11270 ft | 340 kts | 291° |
| 2026-04-20 02:36 | -22.25778 | -51.12333 | 10881 ft | 338 kts | 291° |
| 2026-04-20 02:36 | -22.24907 | -51.14652 | 10506 ft | 335 kts | 291° |
| 2026-04-20 02:36 | -22.24044 | -51.16948 | 10367 ft | 325 kts | 291° |
| 2026-04-20 02:36 | -22.23206 | -51.19177 | 10215 ft | 315 kts | 291° |
| 2026-04-20 02:37 | -22.22394 | -51.21335 | 10088 ft | 306 kts | 291° |
| 2026-04-20 02:37 | -22.21604 | -51.23433 | 9906 ft | 299 kts | 291° |
| 2026-04-20 02:37 | -22.20820 | -51.25518 | 9573 ft | 298 kts | 291° |
| 2026-04-20 02:37 | -22.20042 | -51.27583 | 9256 ft | 296 kts | 291° |
| 2026-04-20 02:38 | -22.19270 | -51.29633 | 8939 ft | 294 kts | 291° |
| 2026-04-20 02:38 | -22.18500 | -51.31677 | 8643 ft | 292 kts | 291° |
| 2026-04-20 02:38 | -22.17744 | -51.33682 | 8336 ft | 291 kts | 291° |
| 2026-04-20 02:38 | -22.16982 | -51.35700 | 8026 ft | 289 kts | 291° |
| 2026-04-20 02:39 | -22.16225 | -51.37707 | 7725 ft | 288 kts | 291° |
| 2026-04-20 02:39 | -22.15466 | -51.39717 | 7373 ft | 289 kts | 291° |
| 2026-04-20 02:39 | -22.14706 | -51.41731 | 7050 ft | 290 kts | 291° |
| 2026-04-20 02:39 | -22.13946 | -51.43743 | 6735 ft | 289 kts | 291° |
| 2026-04-20 02:40 | -22.13187 | -51.45751 | 6421 ft | 289 kts | 291° |
| 2026-04-20 02:40 | -22.12428 | -51.47759 | 6100 ft | 288 kts | 291° |
| 2026-04-20 02:40 | -22.11671 | -51.49760 | 5778 ft | 288 kts | 291° |
| 2026-04-20 02:40 | -22.10918 | -51.51751 | 5572 ft | 283 kts | 291° |
| 2026-04-20 02:41 | -22.10183 | -51.53689 | 5436 ft | 276 kts | 291° |
| 2026-04-20 02:41 | -22.09465 | -51.55582 | 5302 ft | 269 kts | 291° |
| 2026-04-20 02:41 | -22.09063 | -51.57496 | 5136 ft | 259 kts | 265° |
| 2026-04-20 02:41 | -22.09550 | -51.59272 | 5078 ft | 240 kts | 236° |
| 2026-04-20 02:42 | -22.10636 | -51.60542 | 4969 ft | 223 kts | 212° |
| 2026-04-20 02:42 | -22.11974 | -51.61226 | 4880 ft | 206 kts | 194° |
| 2026-04-20 02:42 | -22.13353 | -51.61417 | 4655 ft | 196 kts | 171° |
| 2026-04-20 02:42 | -22.14528 | -51.60824 | 4414 ft | 185 kts | 130° |
| 2026-04-20 02:43 | -22.15091 | -51.59652 | 4252 ft | 175 kts | 105° |
| 2026-04-20 02:43 | -22.15307 | -51.58385 | 4065 ft | 169 kts | 99° |
| 2026-04-20 02:43 | -22.15473 | -51.57147 | 3871 ft | 163 kts | 99° |
| 2026-04-20 02:43 | -22.15631 | -51.55963 | 3726 ft | 154 kts | 99° |
| 2026-04-20 02:44 | -22.15782 | -51.54852 | 3520 ft | 146 kts | 99° |
| 2026-04-20 02:44 | -22.15929 | -51.53789 | 3348 ft | 143 kts | 99° |
| 2026-04-20 02:44 | -22.16077 | -51.52721 | 3162 ft | 145 kts | 98° |
| 2026-04-20 02:44 | -22.16223 | -51.51657 | 2970 ft | 142 kts | 98° |
| 2026-04-20 02:45 | -22.16367 | -51.50616 | 2781 ft | 138 kts | 98° |
| 2026-04-20 02:45 | -22.16508 | -51.49609 | 2603 ft | 137 kts | 98° |
| 2026-04-20 02:45 | -22.16650 | -51.48590 | 2428 ft | 137 kts | 98° |
| 2026-04-20 02:45 | -22.16793 | -51.47564 | 2236 ft | 140 kts | 98° |
| 2026-04-20 02:46 | -22.16940 | -51.46507 | 2066 ft | 144 kts | 98° |
| 2026-04-20 02:46 | -22.17086 | -51.45422 | 1834 ft | 147 kts | 98° |
| 2026-04-20 02:46 | -22.17236 | -51.44340 | 1639 ft | 145 kts | 100° |
| 2026-04-20 02:46 | -22.17391 | -51.43280 | 1451 ft | 141 kts | 99° |
| 2026-04-20 02:47 | -22.17512 | -51.42399 | 1468 ft | 72 kts | 98° |
| 2026-04-20 02:47 | -22.17568 | -51.41999 | 1479 ft | 49 kts | 98° |
| 2026-04-20 02:47 | -22.17606 | -51.41734 | 1477 ft | 29 kts | 98° |
| 2026-04-20 02:47 | -22.17632 | -51.41549 | 1484 ft | 9 kts | 101° |
| 2026-04-20 02:48 | -22.17646 | -51.41507 | 1485 ft | 6 kts | 122° |
| 2026-04-20 02:48 | -22.17677 | -51.41479 | 1479 ft | 6 kts | 148° |
| 2026-04-20 02:48 | -22.17716 | -51.41477 | 1483 ft | 6 kts | 191° |
| 2026-04-20 02:48 | -22.17749 | -51.41504 | 1484 ft | 6 kts | 229° |
| 2026-04-20 02:49 | -22.17772 | -51.41546 | 1483 ft | 7 kts | 253° |
| 2026-04-20 02:49 | -22.17766 | -51.41596 | 1474 ft | 7 kts | 277° |
| 2026-04-20 02:49 | -22.17759 | -51.41649 | 1481 ft | 7 kts | 278° |
| 2026-04-20 02:49 | -22.17752 | -51.41702 | 1480 ft | 7 kts | 278° |
| 2026-04-20 02:50 | -22.17741 | -51.41757 | 1482 ft | 8 kts | 279° |
| 2026-04-20 02:50 | -22.17759 | -51.41787 | 1478 ft | 4 kts | 193° |
| 2026-04-20 02:50 | -22.17780 | -51.41790 | 1486 ft | 1 kts | 186° |
| 2026-04-20 02:50 | -22.17783 | -51.41790 | 1483 ft | 0 kts | 187° |